sensor_id;sensor_type;location;lat;lon;timestamp;P1;durP1;ratioP1;P2;durP2;ratioP2
58360;SDS011;44164;44.954;10.068;2023-06-22T00:02:14;7.90;;;5.63;;
58360;SDS011;44164;44.954;10.068;2023-06-22T00:04:40;7.28;;;5.20;;
58360;SDS011;44164;44.954;10.068;2023-06-22T00:07:06;7.57;;;5.57;;
58360;SDS011;44164;44.954;10.068;2023-06-22T00:09:32;7.95;;;5.55;;
58360;SDS011;44164;44.954;10.068;2023-06-22T00:11:59;6.47;;;5.53;;
58360;SDS011;44164;44.954;10.068;2023-06-22T00:14:25;6.45;;;5.43;;
58360;SDS011;44164;44.954;10.068;2023-06-22T00:16:51;8.70;;;5.32;;
58360;SDS011;44164;44.954;10.068;2023-06-22T00:19:21;6.85;;;5.60;;
58360;SDS011;44164;44.954;10.068;2023-06-22T00:21:47;7.38;;;5.40;;
58360;SDS011;44164;44.954;10.068;2023-06-22T00:24:19;8.32;;;6.03;;
58360;SDS011;44164;44.954;10.068;2023-06-22T00:26:45;7.07;;;5.78;;
58360;SDS011;44164;44.954;10.068;2023-06-22T00:29:13;8.05;;;5.80;;
58360;SDS011;44164;44.954;10.068;2023-06-22T00:31:39;8.57;;;5.35;;
58360;SDS011;44164;44.954;10.068;2023-06-22T00:34:05;9.35;;;6.40;;
58360;SDS011;44164;44.954;10.068;2023-06-22T00:36:33;5.72;;;4.95;;
58360;SDS011;44164;44.954;10.068;2023-06-22T00:38:59;6.65;;;5.85;;
58360;SDS011;44164;44.954;10.068;2023-06-22T00:41:25;9.82;;;5.72;;
58360;SDS011;44164;44.954;10.068;2023-06-22T00:43:54;7.05;;;5.13;;
58360;SDS011;44164;44.954;10.068;2023-06-22T00:46:21;9.18;;;5.78;;
58360;SDS011;44164;44.954;10.068;2023-06-22T00:48:48;7.18;;;5.38;;
58360;SDS011;44164;44.954;10.068;2023-06-22T00:51:15;7.93;;;5.80;;
58360;SDS011;44164;44.954;10.068;2023-06-22T00:53:41;8.63;;;6.20;;
58360;SDS011;44164;44.954;10.068;2023-06-22T00:56:09;8.25;;;5.88;;
58360;SDS011;44164;44.954;10.068;2023-06-22T00:58:38;6.97;;;5.82;;
58360;SDS011;44164;44.954;10.068;2023-06-22T01:01:07;6.80;;;5.50;;
58360;SDS011;44164;44.954;10.068;2023-06-22T01:03:33;9.00;;;5.57;;
58360;SDS011;44164;44.954;10.068;2023-06-22T01:06:06;7.35;;;5.70;;
58360;SDS011;44164;44.954;10.068;2023-06-22T01:11:17;8.23;;;6.05;;
58360;SDS011;44164;44.954;10.068;2023-06-22T01:16:56;7.90;;;6.05;;
58360;SDS011;44164;44.954;10.068;2023-06-22T01:22:21;7.15;;;5.90;;
58360;SDS011;44164;44.954;10.068;2023-06-22T01:30:11;9.32;;;6.40;;
58360;SDS011;44164;44.954;10.068;2023-06-22T01:32:38;8.80;;;5.88;;
58360;SDS011;44164;44.954;10.068;2023-06-22T01:35:05;8.35;;;6.25;;
58360;SDS011;44164;44.954;10.068;2023-06-22T01:37:33;10.45;;;6.80;;
58360;SDS011;44164;44.954;10.068;2023-06-22T01:40:00;10.10;;;7.13;;
58360;SDS011;44164;44.954;10.068;2023-06-22T01:42:27;9.20;;;6.97;;
58360;SDS011;44164;44.954;10.068;2023-06-22T01:44:53;8.13;;;7.10;;
58360;SDS011;44164;44.954;10.068;2023-06-22T01:47:20;9.70;;;6.35;;
58360;SDS011;44164;44.954;10.068;2023-06-22T01:49:47;9.80;;;6.32;;
58360;SDS011;44164;44.954;10.068;2023-06-22T01:52:14;7.40;;;6.05;;
58360;SDS011;44164;44.954;10.068;2023-06-22T01:54:41;9.30;;;6.15;;
58360;SDS011;44164;44.954;10.068;2023-06-22T01:57:07;7.57;;;6.88;;
58360;SDS011;44164;44.954;10.068;2023-06-22T02:02:54;9.68;;;6.15;;
58360;SDS011;44164;44.954;10.068;2023-06-22T02:05:26;9.80;;;7.28;;
58360;SDS011;44164;44.954;10.068;2023-06-22T02:10:37;8.75;;;6.80;;
58360;SDS011;44164;44.954;10.068;2023-06-22T02:13:06;8.43;;;6.10;;
58360;SDS011;44164;44.954;10.068;2023-06-22T02:15:36;9.18;;;6.43;;
58360;SDS011;44164;44.954;10.068;2023-06-22T02:18:02;9.02;;;5.88;;
58360;SDS011;44164;44.954;10.068;2023-06-22T02:20:28;9.93;;;6.45;;
58360;SDS011;44164;44.954;10.068;2023-06-22T02:22:56;9.20;;;7.03;;
58360;SDS011;44164;44.954;10.068;2023-06-22T02:25:22;7.82;;;6.95;;
58360;SDS011;44164;44.954;10.068;2023-06-22T02:27:48;10.57;;;6.82;;
58360;SDS011;44164;44.954;10.068;2023-06-22T02:30:16;7.57;;;6.88;;
58360;SDS011;44164;44.954;10.068;2023-06-22T02:32:42;9.02;;;6.25;;
58360;SDS011;44164;44.954;10.068;2023-06-22T02:35:09;9.50;;;6.85;;
58360;SDS011;44164;44.954;10.068;2023-06-22T02:37:36;8.35;;;6.90;;
58360;SDS011;44164;44.954;10.068;2023-06-22T02:40:07;9.13;;;6.50;;
58360;SDS011;44164;44.954;10.068;2023-06-22T02:42:35;8.02;;;6.43;;
58360;SDS011;44164;44.954;10.068;2023-06-22T02:45:01;8.25;;;6.45;;
58360;SDS011;44164;44.954;10.068;2023-06-22T02:47:27;7.85;;;6.70;;
58360;SDS011;44164;44.954;10.068;2023-06-22T02:49:53;8.18;;;7.25;;
58360;SDS011;44164;44.954;10.068;2023-06-22T02:52:20;11.77;;;7.00;;
58360;SDS011;44164;44.954;10.068;2023-06-22T02:54:46;8.20;;;6.57;;
58360;SDS011;44164;44.954;10.068;2023-06-22T02:57:14;9.50;;;6.80;;
58360;SDS011;44164;44.954;10.068;2023-06-22T02:59:41;11.93;;;7.05;;
58360;SDS011;44164;44.954;10.068;2023-06-22T03:02:10;9.95;;;7.20;;
58360;SDS011;44164;44.954;10.068;2023-06-22T03:04:37;8.10;;;6.28;;
58360;SDS011;44164;44.954;10.068;2023-06-22T03:07:03;10.10;;;7.88;;
58360;SDS011;44164;44.954;10.068;2023-06-22T03:11:58;11.63;;;7.43;;
58360;SDS011;44164;44.954;10.068;2023-06-22T03:14:29;16.75;;;8.10;;
58360;SDS011;44164;44.954;10.068;2023-06-22T03:16:55;11.50;;;7.72;;
58360;SDS011;44164;44.954;10.068;2023-06-22T03:19:27;14.70;;;7.78;;
58360;SDS011;44164;44.954;10.068;2023-06-22T03:21:55;11.82;;;7.50;;
58360;SDS011;44164;44.954;10.068;2023-06-22T03:24:21;10.98;;;7.20;;
58360;SDS011;44164;44.954;10.068;2023-06-22T03:26:47;11.27;;;8.02;;
58360;SDS011;44164;44.954;10.068;2023-06-22T03:29:14;11.40;;;8.63;;
58360;SDS011;44164;44.954;10.068;2023-06-22T03:31:42;9.85;;;7.60;;
58360;SDS011;44164;44.954;10.068;2023-06-22T03:34:09;11.75;;;8.10;;
58360;SDS011;44164;44.954;10.068;2023-06-22T03:36:35;14.55;;;8.40;;
58360;SDS011;44164;44.954;10.068;2023-06-22T03:39:01;12.43;;;8.20;;
58360;SDS011;44164;44.954;10.068;2023-06-22T03:41:28;19.23;;;8.03;;
58360;SDS011;44164;44.954;10.068;2023-06-22T03:43:56;18.00;;;8.50;;
58360;SDS011;44164;44.954;10.068;2023-06-22T03:46:22;14.73;;;7.97;;
58360;SDS011;44164;44.954;10.068;2023-06-22T03:48:48;12.35;;;7.78;;
58360;SDS011;44164;44.954;10.068;2023-06-22T03:51:14;12.52;;;8.02;;
58360;SDS011;44164;44.954;10.068;2023-06-22T03:53:40;13.23;;;8.02;;
58360;SDS011;44164;44.954;10.068;2023-06-22T03:56:06;17.75;;;8.07;;
58360;SDS011;44164;44.954;10.068;2023-06-22T03:58:32;15.75;;;8.85;;
58360;SDS011;44164;44.954;10.068;2023-06-22T04:00:59;21.50;;;10.55;;
58360;SDS011;44164;44.954;10.068;2023-06-22T04:03:25;16.45;;;9.13;;
58360;SDS011;44164;44.954;10.068;2023-06-22T04:05:52;16.45;;;8.65;;
58360;SDS011;44164;44.954;10.068;2023-06-22T04:08:18;14.50;;;8.80;;
58360;SDS011;44164;44.954;10.068;2023-06-22T04:10:44;16.05;;;8.90;;
58360;SDS011;44164;44.954;10.068;2023-06-22T04:13:10;14.93;;;8.25;;
58360;SDS011;44164;44.954;10.068;2023-06-22T04:15:36;14.35;;;8.43;;
58360;SDS011;44164;44.954;10.068;2023-06-22T04:18:03;12.10;;;9.65;;
58360;SDS011;44164;44.954;10.068;2023-06-22T04:20:29;11.88;;;9.57;;
58360;SDS011;44164;44.954;10.068;2023-06-22T04:22:57;18.73;;;9.60;;
58360;SDS011;44164;44.954;10.068;2023-06-22T04:25:23;14.95;;;10.10;;
58360;SDS011;44164;44.954;10.068;2023-06-22T04:27:49;15.20;;;9.07;;
58360;SDS011;44164;44.954;10.068;2023-06-22T04:30:15;11.25;;;8.23;;
58360;SDS011;44164;44.954;10.068;2023-06-22T04:32:42;13.43;;;9.13;;
58360;SDS011;44164;44.954;10.068;2023-06-22T04:35:09;15.23;;;9.83;;
58360;SDS011;44164;44.954;10.068;2023-06-22T04:37:36;16.10;;;8.80;;
58360;SDS011;44164;44.954;10.068;2023-06-22T04:40:02;15.20;;;9.57;;
58360;SDS011;44164;44.954;10.068;2023-06-22T04:42:30;13.13;;;9.13;;
58360;SDS011;44164;44.954;10.068;2023-06-22T04:44:57;14.65;;;8.90;;
58360;SDS011;44164;44.954;10.068;2023-06-22T04:47:23;14.20;;;8.75;;
58360;SDS011;44164;44.954;10.068;2023-06-22T04:49:49;11.27;;;8.95;;
58360;SDS011;44164;44.954;10.068;2023-06-22T04:52:16;14.38;;;9.20;;
58360;SDS011;44164;44.954;10.068;2023-06-22T04:54:43;13.73;;;8.75;;
58360;SDS011;44164;44.954;10.068;2023-06-22T04:57:13;16.77;;;8.80;;
58360;SDS011;44164;44.954;10.068;2023-06-22T04:59:40;14.02;;;8.52;;
58360;SDS011;44164;44.954;10.068;2023-06-22T05:02:07;14.88;;;8.18;;
58360;SDS011;44164;44.954;10.068;2023-06-22T05:04:34;14.60;;;7.60;;
58360;SDS011;44164;44.954;10.068;2023-06-22T05:07:06;13.20;;;7.53;;
58360;SDS011;44164;44.954;10.068;2023-06-22T05:09:33;19.63;;;8.23;;
58360;SDS011;44164;44.954;10.068;2023-06-22T05:11:59;14.75;;;7.90;;
58360;SDS011;44164;44.954;10.068;2023-06-22T05:14:28;10.98;;;8.05;;
58360;SDS011;44164;44.954;10.068;2023-06-22T05:16:55;13.00;;;7.60;;
58360;SDS011;44164;44.954;10.068;2023-06-22T05:19:24;12.20;;;7.50;;
58360;SDS011;44164;44.954;10.068;2023-06-22T05:21:53;13.93;;;7.22;;
58360;SDS011;44164;44.954;10.068;2023-06-22T05:24:19;11.32;;;6.95;;
58360;SDS011;44164;44.954;10.068;2023-06-22T05:26:46;12.32;;;7.47;;
58360;SDS011;44164;44.954;10.068;2023-06-22T05:29:12;12.45;;;7.60;;
58360;SDS011;44164;44.954;10.068;2023-06-22T05:31:38;11.00;;;6.85;;
58360;SDS011;44164;44.954;10.068;2023-06-22T05:34:06;11.25;;;7.18;;
58360;SDS011;44164;44.954;10.068;2023-06-22T05:36:32;12.73;;;6.97;;
58360;SDS011;44164;44.954;10.068;2023-06-22T05:38:58;12.45;;;7.10;;
58360;SDS011;44164;44.954;10.068;2023-06-22T05:41:24;10.65;;;7.07;;
58360;SDS011;44164;44.954;10.068;2023-06-22T05:43:50;11.35;;;7.43;;
58360;SDS011;44164;44.954;10.068;2023-06-22T05:46:17;10.80;;;6.93;;
58360;SDS011;44164;44.954;10.068;2023-06-22T05:48:43;16.08;;;7.53;;
58360;SDS011;44164;44.954;10.068;2023-06-22T05:51:09;9.30;;;5.97;;
58360;SDS011;44164;44.954;10.068;2023-06-22T05:53:35;7.15;;;6.25;;
58360;SDS011;44164;44.954;10.068;2023-06-22T05:56:01;8.77;;;6.32;;
58360;SDS011;44164;44.954;10.068;2023-06-22T05:58:27;8.73;;;5.95;;
58360;SDS011;44164;44.954;10.068;2023-06-22T06:00:54;8.02;;;6.07;;
58360;SDS011;44164;44.954;10.068;2023-06-22T06:03:20;8.88;;;6.28;;
58360;SDS011;44164;44.954;10.068;2023-06-22T06:05:46;11.90;;;6.53;;
58360;SDS011;44164;44.954;10.068;2023-06-22T06:08:12;8.27;;;6.43;;
58360;SDS011;44164;44.954;10.068;2023-06-22T06:10:38;8.18;;;6.30;;
58360;SDS011;44164;44.954;10.068;2023-06-22T06:13:05;12.70;;;6.72;;
58360;SDS011;44164;44.954;10.068;2023-06-22T06:15:31;8.48;;;6.28;;
58360;SDS011;44164;44.954;10.068;2023-06-22T06:17:58;10.13;;;6.57;;
58360;SDS011;44164;44.954;10.068;2023-06-22T06:20:25;10.75;;;6.43;;
58360;SDS011;44164;44.954;10.068;2023-06-22T06:22:53;9.73;;;6.10;;
58360;SDS011;44164;44.954;10.068;2023-06-22T06:25:19;7.57;;;5.95;;
58360;SDS011;44164;44.954;10.068;2023-06-22T06:27:48;8.80;;;6.95;;
58360;SDS011;44164;44.954;10.068;2023-06-22T06:30:16;8.57;;;6.32;;
58360;SDS011;44164;44.954;10.068;2023-06-22T06:35:11;12.45;;;6.32;;
58360;SDS011;44164;44.954;10.068;2023-06-22T06:37:39;10.88;;;7.47;;
58360;SDS011;44164;44.954;10.068;2023-06-22T06:40:06;7.68;;;6.35;;
58360;SDS011;44164;44.954;10.068;2023-06-22T06:42:37;11.25;;;6.47;;
58360;SDS011;44164;44.954;10.068;2023-06-22T06:45:04;9.35;;;6.30;;
58360;SDS011;44164;44.954;10.068;2023-06-22T06:47:31;11.07;;;6.07;;
58360;SDS011;44164;44.954;10.068;2023-06-22T06:49:57;11.90;;;6.47;;
58360;SDS011;44164;44.954;10.068;2023-06-22T06:52:23;10.60;;;6.32;;
58360;SDS011;44164;44.954;10.068;2023-06-22T06:54:49;10.27;;;7.38;;
58360;SDS011;44164;44.954;10.068;2023-06-22T06:57:18;13.27;;;6.47;;
58360;SDS011;44164;44.954;10.068;2023-06-22T06:59:46;7.30;;;6.40;;
58360;SDS011;44164;44.954;10.068;2023-06-22T07:02:12;10.82;;;6.88;;
58360;SDS011;44164;44.954;10.068;2023-06-22T07:04:38;16.58;;;6.95;;
58360;SDS011;44164;44.954;10.068;2023-06-22T07:07:04;10.25;;;6.70;;
58360;SDS011;44164;44.954;10.068;2023-06-22T07:09:31;8.68;;;6.53;;
58360;SDS011;44164;44.954;10.068;2023-06-22T07:11:57;9.40;;;6.10;;
58360;SDS011;44164;44.954;10.068;2023-06-22T07:14:23;11.40;;;6.57;;
58360;SDS011;44164;44.954;10.068;2023-06-22T07:16:49;11.32;;;7.90;;
58360;SDS011;44164;44.954;10.068;2023-06-22T07:19:15;12.45;;;7.40;;
58360;SDS011;44164;44.954;10.068;2023-06-22T07:21:41;13.13;;;7.70;;
58360;SDS011;44164;44.954;10.068;2023-06-22T07:24:08;16.05;;;7.03;;
58360;SDS011;44164;44.954;10.068;2023-06-22T07:26:34;12.10;;;6.97;;
58360;SDS011;44164;44.954;10.068;2023-06-22T07:29:00;11.60;;;7.05;;
58360;SDS011;44164;44.954;10.068;2023-06-22T07:31:26;11.70;;;7.50;;
58360;SDS011;44164;44.954;10.068;2023-06-22T07:33:52;10.07;;;7.00;;
58360;SDS011;44164;44.954;10.068;2023-06-22T07:36:18;12.07;;;7.05;;
58360;SDS011;44164;44.954;10.068;2023-06-22T07:38:45;8.60;;;6.20;;
58360;SDS011;44164;44.954;10.068;2023-06-22T07:41:11;9.88;;;6.80;;
58360;SDS011;44164;44.954;10.068;2023-06-22T07:43:37;10.63;;;6.13;;
58360;SDS011;44164;44.954;10.068;2023-06-22T07:46:03;10.90;;;6.63;;
58360;SDS011;44164;44.954;10.068;2023-06-22T07:48:30;11.07;;;6.45;;
58360;SDS011;44164;44.954;10.068;2023-06-22T07:50:56;12.00;;;6.32;;
58360;SDS011;44164;44.954;10.068;2023-06-22T07:53:22;9.27;;;6.10;;
58360;SDS011;44164;44.954;10.068;2023-06-22T07:55:51;8.90;;;5.90;;
58360;SDS011;44164;44.954;10.068;2023-06-22T07:58:18;10.88;;;6.20;;
58360;SDS011;44164;44.954;10.068;2023-06-22T08:00:46;10.98;;;6.05;;
58360;SDS011;44164;44.954;10.068;2023-06-22T08:03:12;15.95;;;7.63;;
58360;SDS011;44164;44.954;10.068;2023-06-22T08:05:39;13.95;;;7.18;;
58360;SDS011;44164;44.954;10.068;2023-06-22T08:08:05;10.27;;;6.70;;
58360;SDS011;44164;44.954;10.068;2023-06-22T08:10:31;11.15;;;6.50;;
58360;SDS011;44164;44.954;10.068;2023-06-22T08:12:57;9.82;;;5.93;;
58360;SDS011;44164;44.954;10.068;2023-06-22T08:15:25;9.43;;;6.50;;
58360;SDS011;44164;44.954;10.068;2023-06-22T08:20:18;11.07;;;5.78;;
58360;SDS011;44164;44.954;10.068;2023-06-22T08:22:44;12.75;;;6.55;;
58360;SDS011;44164;44.954;10.068;2023-06-22T08:25:10;11.30;;;7.00;;
58360;SDS011;44164;44.954;10.068;2023-06-22T08:27:37;11.15;;;6.60;;
58360;SDS011;44164;44.954;10.068;2023-06-22T08:30:03;10.57;;;6.10;;
58360;SDS011;44164;44.954;10.068;2023-06-22T08:32:30;11.68;;;6.50;;
58360;SDS011;44164;44.954;10.068;2023-06-22T08:34:58;9.15;;;6.82;;
58360;SDS011;44164;44.954;10.068;2023-06-22T08:37:24;14.75;;;7.55;;
58360;SDS011;44164;44.954;10.068;2023-06-22T08:39:56;13.63;;;6.93;;
58360;SDS011;44164;44.954;10.068;2023-06-22T08:42:24;8.57;;;6.43;;
58360;SDS011;44164;44.954;10.068;2023-06-22T08:44:51;8.37;;;5.97;;
58360;SDS011;44164;44.954;10.068;2023-06-22T08:47:17;8.80;;;6.57;;
58360;SDS011;44164;44.954;10.068;2023-06-22T08:49:43;8.13;;;5.40;;
58360;SDS011;44164;44.954;10.068;2023-06-22T08:52:10;10.15;;;6.80;;
58360;SDS011;44164;44.954;10.068;2023-06-22T08:54:36;7.22;;;5.78;;
58360;SDS011;44164;44.954;10.068;2023-06-22T08:57:02;12.80;;;6.03;;
58360;SDS011;44164;44.954;10.068;2023-06-22T08:59:28;7.75;;;5.97;;
58360;SDS011;44164;44.954;10.068;2023-06-22T09:01:54;9.50;;;6.55;;
58360;SDS011;44164;44.954;10.068;2023-06-22T09:04:21;8.23;;;6.90;;
58360;SDS011;44164;44.954;10.068;2023-06-22T09:06:49;9.63;;;6.78;;
58360;SDS011;44164;44.954;10.068;2023-06-22T09:09:18;8.98;;;6.47;;
58360;SDS011;44164;44.954;10.068;2023-06-22T09:11:44;14.43;;;7.72;;
58360;SDS011;44164;44.954;10.068;2023-06-22T09:14:10;8.80;;;6.53;;
58360;SDS011;44164;44.954;10.068;2023-06-22T09:16:37;10.00;;;5.85;;
58360;SDS011;44164;44.954;10.068;2023-06-22T09:19:03;9.43;;;6.35;;
58360;SDS011;44164;44.954;10.068;2023-06-22T09:21:29;11.60;;;6.13;;
58360;SDS011;44164;44.954;10.068;2023-06-22T09:23:55;9.63;;;6.70;;
58360;SDS011;44164;44.954;10.068;2023-06-22T09:26:22;7.82;;;6.00;;
58360;SDS011;44164;44.954;10.068;2023-06-22T09:28:49;7.60;;;6.17;;
58360;SDS011;44164;44.954;10.068;2023-06-22T09:31:15;8.35;;;6.03;;
58360;SDS011;44164;44.954;10.068;2023-06-22T09:33:42;9.52;;;5.40;;
58360;SDS011;44164;44.954;10.068;2023-06-22T09:36:09;9.85;;;6.55;;
58360;SDS011;44164;44.954;10.068;2023-06-22T09:38:35;9.90;;;6.53;;
58360;SDS011;44164;44.954;10.068;2023-06-22T09:41:02;7.83;;;6.07;;
58360;SDS011;44164;44.954;10.068;2023-06-22T09:43:28;9.18;;;6.00;;
58360;SDS011;44164;44.954;10.068;2023-06-22T09:45:55;7.03;;;5.55;;
58360;SDS011;44164;44.954;10.068;2023-06-22T09:48:22;8.00;;;5.82;;
58360;SDS011;44164;44.954;10.068;2023-06-22T09:50:48;10.75;;;6.75;;
58360;SDS011;44164;44.954;10.068;2023-06-22T09:53:14;9.38;;;6.70;;
58360;SDS011;44164;44.954;10.068;2023-06-22T09:55:40;10.95;;;5.97;;
58360;SDS011;44164;44.954;10.068;2023-06-22T09:58:07;8.73;;;6.07;;
58360;SDS011;44164;44.954;10.068;2023-06-22T10:00:34;7.45;;;6.13;;
58360;SDS011;44164;44.954;10.068;2023-06-22T10:03:00;9.23;;;6.72;;
58360;SDS011;44164;44.954;10.068;2023-06-22T10:05:26;14.00;;;7.38;;
58360;SDS011;44164;44.954;10.068;2023-06-22T10:07:52;9.85;;;6.70;;
58360;SDS011;44164;44.954;10.068;2023-06-22T10:10:19;12.35;;;6.93;;
58360;SDS011;44164;44.954;10.068;2023-06-22T10:12:46;8.30;;;6.07;;
58360;SDS011;44164;44.954;10.068;2023-06-22T10:15:14;9.30;;;6.10;;
58360;SDS011;44164;44.954;10.068;2023-06-22T10:17:40;8.10;;;5.05;;
58360;SDS011;44164;44.954;10.068;2023-06-22T10:20:06;9.45;;;5.90;;
58360;SDS011;44164;44.954;10.068;2023-06-22T10:22:43;6.63;;;5.60;;
58360;SDS011;44164;44.954;10.068;2023-06-22T10:25:10;6.80;;;5.97;;
58360;SDS011;44164;44.954;10.068;2023-06-22T10:27:37;8.75;;;6.22;;
58360;SDS011;44164;44.954;10.068;2023-06-22T10:30:10;12.02;;;6.47;;
58360;SDS011;44164;44.954;10.068;2023-06-22T10:32:41;11.63;;;6.45;;
58360;SDS011;44164;44.954;10.068;2023-06-22T10:35:08;9.07;;;6.53;;
58360;SDS011;44164;44.954;10.068;2023-06-22T10:40:02;8.57;;;6.38;;
58360;SDS011;44164;44.954;10.068;2023-06-22T10:42:29;7.95;;;6.32;;
58360;SDS011;44164;44.954;10.068;2023-06-22T10:44:56;8.52;;;5.93;;
58360;SDS011;44164;44.954;10.068;2023-06-22T10:47:22;8.95;;;5.90;;
58360;SDS011;44164;44.954;10.068;2023-06-22T10:49:48;7.35;;;6.07;;
58360;SDS011;44164;44.954;10.068;2023-06-22T10:52:14;6.28;;;5.57;;
58360;SDS011;44164;44.954;10.068;2023-06-22T10:54:40;7.22;;;6.43;;
58360;SDS011;44164;44.954;10.068;2023-06-22T10:57:06;7.18;;;6.35;;
58360;SDS011;44164;44.954;10.068;2023-06-22T10:59:33;8.48;;;6.60;;
58360;SDS011;44164;44.954;10.068;2023-06-22T11:01:59;7.65;;;6.55;;
58360;SDS011;44164;44.954;10.068;2023-06-22T11:04:25;7.65;;;6.38;;
58360;SDS011;44164;44.954;10.068;2023-06-22T11:06:51;8.80;;;6.30;;
58360;SDS011;44164;44.954;10.068;2023-06-22T11:09:17;11.38;;;7.10;;
58360;SDS011;44164;44.954;10.068;2023-06-22T11:11:44;8.37;;;6.33;;
58360;SDS011;44164;44.954;10.068;2023-06-22T11:14:10;9.90;;;6.63;;
58360;SDS011;44164;44.954;10.068;2023-06-22T11:16:37;8.27;;;5.90;;
58360;SDS011;44164;44.954;10.068;2023-06-22T11:19:04;7.45;;;5.78;;
58360;SDS011;44164;44.954;10.068;2023-06-22T11:23:57;10.18;;;6.68;;
58360;SDS011;44164;44.954;10.068;2023-06-22T11:26:24;8.32;;;6.68;;
58360;SDS011;44164;44.954;10.068;2023-06-22T11:28:53;7.47;;;6.25;;
58360;SDS011;44164;44.954;10.068;2023-06-22T11:31:19;10.80;;;6.55;;
58360;SDS011;44164;44.954;10.068;2023-06-22T11:33:45;8.00;;;6.28;;
58360;SDS011;44164;44.954;10.068;2023-06-22T11:36:12;8.70;;;6.70;;
58360;SDS011;44164;44.954;10.068;2023-06-22T11:38:39;10.25;;;7.30;;
58360;SDS011;44164;44.954;10.068;2023-06-22T11:41:08;10.50;;;6.53;;
58360;SDS011;44164;44.954;10.068;2023-06-22T11:43:35;7.32;;;6.47;;
58360;SDS011;44164;44.954;10.068;2023-06-22T11:46:02;7.47;;;6.25;;
58360;SDS011;44164;44.954;10.068;2023-06-22T11:48:28;10.23;;;6.63;;
58360;SDS011;44164;44.954;10.068;2023-06-22T11:50:55;7.25;;;6.07;;
58360;SDS011;44164;44.954;10.068;2023-06-22T11:53:21;8.48;;;6.50;;
58360;SDS011;44164;44.954;10.068;2023-06-22T11:55:49;10.45;;;6.00;;
58360;SDS011;44164;44.954;10.068;2023-06-22T11:58:16;9.63;;;6.35;;
58360;SDS011;44164;44.954;10.068;2023-06-22T12:00:42;9.90;;;6.18;;
58360;SDS011;44164;44.954;10.068;2023-06-22T12:03:08;7.38;;;6.20;;
58360;SDS011;44164;44.954;10.068;2023-06-22T12:05:35;8.07;;;6.47;;
58360;SDS011;44164;44.954;10.068;2023-06-22T12:08:01;7.47;;;5.72;;
58360;SDS011;44164;44.954;10.068;2023-06-22T12:10:27;7.00;;;5.72;;
58360;SDS011;44164;44.954;10.068;2023-06-22T12:12:56;8.13;;;6.13;;
58360;SDS011;44164;44.954;10.068;2023-06-22T12:15:23;5.65;;;5.05;;
58360;SDS011;44164;44.954;10.068;2023-06-22T12:17:50;6.30;;;5.60;;
58360;SDS011;44164;44.954;10.068;2023-06-22T12:20:16;9.70;;;6.20;;
58360;SDS011;44164;44.954;10.068;2023-06-22T12:22:42;7.10;;;5.90;;
58360;SDS011;44164;44.954;10.068;2023-06-22T12:25:09;9.32;;;6.07;;
58360;SDS011;44164;44.954;10.068;2023-06-22T12:27:35;6.28;;;5.60;;
58360;SDS011;44164;44.954;10.068;2023-06-22T12:30:02;7.63;;;6.45;;
58360;SDS011;44164;44.954;10.068;2023-06-22T12:32:29;8.23;;;6.30;;
58360;SDS011;44164;44.954;10.068;2023-06-22T12:34:56;7.20;;;5.80;;
58360;SDS011;44164;44.954;10.068;2023-06-22T12:37:22;6.72;;;6.03;;
58360;SDS011;44164;44.954;10.068;2023-06-22T12:39:49;8.57;;;5.65;;
58360;SDS011;44164;44.954;10.068;2023-06-22T12:42:15;7.07;;;5.85;;
58360;SDS011;44164;44.954;10.068;2023-06-22T12:44:42;7.68;;;5.97;;
58360;SDS011;44164;44.954;10.068;2023-06-22T12:47:08;7.03;;;5.47;;
58360;SDS011;44164;44.954;10.068;2023-06-22T12:49:35;8.07;;;5.90;;
58360;SDS011;44164;44.954;10.068;2023-06-22T12:52:02;6.63;;;5.88;;
58360;SDS011;44164;44.954;10.068;2023-06-22T12:54:28;7.07;;;5.63;;
58360;SDS011;44164;44.954;10.068;2023-06-22T12:56:55;7.63;;;6.20;;
58360;SDS011;44164;44.954;10.068;2023-06-22T12:59:21;8.27;;;5.97;;
58360;SDS011;44164;44.954;10.068;2023-06-22T13:01:48;7.18;;;6.43;;
58360;SDS011;44164;44.954;10.068;2023-06-22T13:04:14;7.07;;;5.82;;
58360;SDS011;44164;44.954;10.068;2023-06-22T13:06:41;8.23;;;6.05;;
58360;SDS011;44164;44.954;10.068;2023-06-22T13:09:09;8.23;;;5.50;;
58360;SDS011;44164;44.954;10.068;2023-06-22T13:14:01;6.78;;;6.13;;
58360;SDS011;44164;44.954;10.068;2023-06-22T13:16:27;9.50;;;6.15;;
58360;SDS011;44164;44.954;10.068;2023-06-22T13:18:53;7.07;;;5.90;;
58360;SDS011;44164;44.954;10.068;2023-06-22T13:21:20;6.53;;;5.47;;
58360;SDS011;44164;44.954;10.068;2023-06-22T13:23:46;8.13;;;5.35;;
58360;SDS011;44164;44.954;10.068;2023-06-22T13:26:12;6.57;;;5.60;;
58360;SDS011;44164;44.954;10.068;2023-06-22T13:28:38;6.85;;;5.40;;
58360;SDS011;44164;44.954;10.068;2023-06-22T13:31:04;6.45;;;5.72;;
58360;SDS011;44164;44.954;10.068;2023-06-22T13:33:31;6.22;;;5.60;;
58360;SDS011;44164;44.954;10.068;2023-06-22T13:35:57;6.20;;;5.45;;
58360;SDS011;44164;44.954;10.068;2023-06-22T13:38:23;6.25;;;5.28;;
58360;SDS011;44164;44.954;10.068;2023-06-22T13:40:49;6.80;;;5.50;;
58360;SDS011;44164;44.954;10.068;2023-06-22T13:43:16;6.30;;;5.70;;
58360;SDS011;44164;44.954;10.068;2023-06-22T13:45:42;7.20;;;5.55;;
58360;SDS011;44164;44.954;10.068;2023-06-22T13:48:09;6.03;;;5.43;;
58360;SDS011;44164;44.954;10.068;2023-06-22T13:50:35;8.02;;;5.75;;
58360;SDS011;44164;44.954;10.068;2023-06-22T13:53:01;6.18;;;5.55;;
58360;SDS011;44164;44.954;10.068;2023-06-22T13:55:28;7.20;;;5.35;;
58360;SDS011;44164;44.954;10.068;2023-06-22T13:57:54;6.72;;;5.80;;
58360;SDS011;44164;44.954;10.068;2023-06-22T14:00:20;6.85;;;5.80;;
58360;SDS011;44164;44.954;10.068;2023-06-22T14:02:46;6.18;;;5.03;;
58360;SDS011;44164;44.954;10.068;2023-06-22T14:05:12;6.43;;;5.25;;
58360;SDS011;44164;44.954;10.068;2023-06-22T14:07:38;7.03;;;5.22;;
58360;SDS011;44164;44.954;10.068;2023-06-22T14:10:05;5.75;;;5.20;;
58360;SDS011;44164;44.954;10.068;2023-06-22T14:12:31;7.03;;;5.22;;
58360;SDS011;44164;44.954;10.068;2023-06-22T14:14:57;5.80;;;4.90;;
58360;SDS011;44164;44.954;10.068;2023-06-22T14:17:23;6.50;;;5.30;;
58360;SDS011;44164;44.954;10.068;2023-06-22T14:19:52;11.07;;;5.65;;
58360;SDS011;44164;44.954;10.068;2023-06-22T14:22:19;6.05;;;5.45;;
58360;SDS011;44164;44.954;10.068;2023-06-22T14:24:45;6.68;;;5.97;;
58360;SDS011;44164;44.954;10.068;2023-06-22T14:27:12;6.50;;;5.50;;
58360;SDS011;44164;44.954;10.068;2023-06-22T14:29:38;6.80;;;5.10;;
58360;SDS011;44164;44.954;10.068;2023-06-22T14:32:05;6.20;;;5.60;;
58360;SDS011;44164;44.954;10.068;2023-06-22T14:34:32;5.95;;;5.30;;
58360;SDS011;44164;44.954;10.068;2023-06-22T14:37:02;8.98;;;6.18;;
58360;SDS011;44164;44.954;10.068;2023-06-22T14:39:28;9.25;;;5.63;;
58360;SDS011;44164;44.954;10.068;2023-06-22T14:41:55;6.68;;;6.03;;
58360;SDS011;44164;44.954;10.068;2023-06-22T14:44:21;8.48;;;5.60;;
58360;SDS011;44164;44.954;10.068;2023-06-22T14:46:47;6.85;;;5.47;;
58360;SDS011;44164;44.954;10.068;2023-06-22T14:49:13;6.63;;;5.57;;
58360;SDS011;44164;44.954;10.068;2023-06-22T14:51:40;6.97;;;5.25;;
58360;SDS011;44164;44.954;10.068;2023-06-22T14:54:06;6.47;;;5.78;;
58360;SDS011;44164;44.954;10.068;2023-06-22T14:56:32;6.93;;;4.80;;
58360;SDS011;44164;44.954;10.068;2023-06-22T14:58:58;7.47;;;4.95;;
58360;SDS011;44164;44.954;10.068;2023-06-22T15:01:24;6.22;;;5.13;;